Time;durP1;ratioP1;P1;durP2;ratioP2;P2;SDS_P1;SDS_P2;PMS_P1;PMS_P2;Temp;Humidity;BMP_temperature;BMP_pressure;BME280_temperature;BME280_humidity;BME280_pressure;Samples;Min_cycle;Max_cycle;Signal;HPM_P1;HPM_P2
2022/09/08 00:00:44;;;;;;;5.22;1.50;;;;;;;;;;4844885;29;20109;-78
2022/09/08 00:03:11;;;;;;;3.55;1.25;;;;;;;;;;4845206;29;20046;-78
2022/09/08 00:05:41;;;;;;;6.10;1.38;;;;;;;;;;4844428;29;20057;-78
2022/09/08 00:08:09;;;;;;;6.13;1.30;;;;;;;;;;4845110;29;20501;-78
2022/09/08 00:10:36;;;;;;;7.95;1.60;;;;;;;;;;4844458;29;20056;-78
2022/09/08 00:13:03;;;;;;;4.40;1.40;;;;;;;;;;4845034;29;20054;-78
2022/09/08 00:15:29;;;;;;;3.38;1.15;;;;;;;;;;4844360;29;20050;-78
2022/09/08 00:17:55;;;;;;;6.22;1.67;;;;;;;;;;4844838;29;20046;-78
2022/09/08 00:20:22;;;;;;;3.35;0.98;;;;;;;;;;4844733;29;20050;-78
2022/09/08 00:22:48;;;;;;;5.60;1.23;;;;;;;;;;4844613;29;20083;-78
2022/09/08 00:25:14;;;;;;;5.57;1.25;;;;;;;;;;4844586;29;20101;-78
2022/09/08 00:27:40;;;;;;;4.40;1.35;;;;;;;;;;4844689;29;20049;-78
2022/09/08 00:30:06;;;;;;;4.30;1.45;;;;;;;;;;4844117;29;20577;-78
2022/09/08 00:32:32;;;;;;;6.70;1.50;;;;;;;;;;4845009;29;20054;-78
2022/09/08 00:35:00;;;;;;;3.75;1.33;;;;;;;;;;4844307;29;20046;-78
2022/09/08 00:37:28;;;;;;;5.43;1.63;;;;;;;;;;4843321;29;20409;-78
2022/09/08 00:39:54;;;;;;;5.45;1.23;;;;;;;;;;4844296;29;20052;-78
2022/09/08 00:42:21;;;;;;;2.97;1.20;;;;;;;;;;4844827;29;20050;-78
2022/09/08 00:44:51;;;;;;;3.72;1.25;;;;;;;;;;4844361;29;20553;-78
2022/09/08 00:47:30;;;;;;;6.87;1.30;;;;;;;;;;4843986;29;20053;-77
2022/09/08 00:50:00;;;;;;;4.57;1.45;;;;;;;;;;4844318;29;20597;-77
2022/09/08 00:52:29;;;;;;;4.30;1.50;;;;;;;;;;4844095;29;20075;-77
2022/09/08 00:54:55;;;;;;;3.13;1.23;;;;;;;;;;4844094;29;20048;-78
2022/09/08 00:57:21;;;;;;;5.38;1.60;;;;;;;;;;4844130;29;20077;-78
2022/09/08 00:59:48;;;;;;;2.08;1.30;;;;;;;;;;4844022;29;20521;-78
2022/09/08 01:02:23;;;;;;;3.65;1.60;;;;;;;;;;4843788;29;20375;-78
2022/09/08 01:04:50;;;;;;;4.45;1.20;;;;;;;;;;4843722;29;20490;-78
2022/09/08 01:12:54;;;;;;;3.70;1.48;;;;;;;;;;4843501;29;20094;-78
2022/09/08 01:15:23;;;;;;;5.88;1.52;;;;;;;;;;4843923;29;20042;-78
2022/09/08 01:17:49;;;;;;;6.38;1.70;;;;;;;;;;4843678;29;20577;-78
2022/09/08 01:20:19;;;;;;;5.47;1.52;;;;;;;;;;4843846;29;20046;-77
2022/09/08 01:22:55;;;;;;;6.07;1.52;;;;;;;;;;4843959;29;20053;-77
2022/09/08 01:25:28;;;;;;;4.38;1.25;;;;;;;;;;4843710;29;20048;-78
2022/09/08 01:28:02;;;;;;;6.40;1.70;;;;;;;;;;4844427;29;20042;-78
2022/09/08 01:30:29;;;;;;;2.63;1.35;;;;;;;;;;4843661;29;20042;-78
2022/09/08 01:32:55;;;;;;;4.57;1.20;;;;;;;;;;4843864;29;20134;-78
2022/09/08 01:35:31;;;;;;;3.53;1.30;;;;;;;;;;4843794;29;20046;-77
2022/09/08 01:37:57;;;;;;;4.70;1.42;;;;;;;;;;4843396;29;20038;-78
2022/09/08 01:40:24;;;;;;;9.05;1.65;;;;;;;;;;4843853;29;20128;-78
2022/09/08 01:42:50;;;;;;;4.57;2.00;;;;;;;;;;4844073;29;20046;-78
2022/09/08 01:45:16;;;;;;;4.47;1.42;;;;;;;;;;4843287;29;20061;-78
2022/09/08 01:47:43;;;;;;;3.58;1.25;;;;;;;;;;4843699;29;20050;-78
2022/09/08 01:50:09;;;;;;;5.00;1.95;;;;;;;;;;4846015;29;20164;-77
2022/09/08 01:52:35;;;;;;;4.97;1.40;;;;;;;;;;4846523;29;20451;-77
2022/09/08 01:55:02;;;;;;;4.90;1.40;;;;;;;;;;4846825;29;20090;-77
2022/09/08 01:57:28;;;;;;;3.63;1.45;;;;;;;;;;4846888;29;20037;-77
2022/09/08 01:59:54;;;;;;;6.03;1.45;;;;;;;;;;4846709;29;20042;-78
2022/09/08 02:02:20;;;;;;;3.80;1.25;;;;;;;;;;4847297;29;20056;-78
2022/09/08 02:04:46;;;;;;;5.65;1.08;;;;;;;;;;4846640;29;20042;-77
2022/09/08 02:07:12;;;;;;;4.15;1.33;;;;;;;;;;4846785;29;20045;-78
2022/09/08 02:09:39;;;;;;;5.80;1.10;;;;;;;;;;4846510;29;20054;-77
2022/09/08 02:12:05;;;;;;;3.95;1.33;;;;;;;;;;4847125;29;20046;-78
2022/09/08 02:14:31;;;;;;;4.25;1.50;;;;;;;;;;4846480;29;20066;-78
2022/09/08 02:16:57;;;;;;;5.88;0.95;;;;;;;;;;4846202;29;20410;-78
2022/09/08 02:19:23;;;;;;;5.05;1.20;;;;;;;;;;4846387;29;20050;-78
2022/09/08 02:21:49;;;;;;;5.22;1.33;;;;;;;;;;4846408;29;20601;-78
2022/09/08 02:24:15;;;;;;;3.58;1.30;;;;;;;;;;4846315;29;20068;-77
2022/09/08 02:26:42;;;;;;;3.90;1.20;;;;;;;;;;4846058;29;20121;-77
2022/09/08 02:29:10;;;;;;;2.58;0.93;;;;;;;;;;4846069;29;20061;-77
2022/09/08 02:31:37;;;;;;;2.47;1.23;;;;;;;;;;4846219;29;20050;-78
2022/09/08 02:34:03;;;;;;;4.47;1.40;;;;;;;;;;4845865;29;20379;-78
2022/09/08 02:36:29;;;;;;;3.42;1.38;;;;;;;;;;4845943;29;20045;-78
2022/09/08 02:38:56;;;;;;;5.47;1.30;;;;;;;;;;4846084;29;20510;-78
2022/09/08 02:41:23;;;;;;;5.40;2.00;;;;;;;;;;4846373;29;20054;-78
2022/09/08 02:43:49;;;;;;;3.45;1.17;;;;;;;;;;4845941;29;20074;-78
2022/09/08 02:46:15;;;;;;;3.45;1.42;;;;;;;;;;4846544;29;20120;-78
2022/09/08 02:48:41;;;;;;;6.55;1.15;;;;;;;;;;4845832;29;20045;-78
2022/09/08 02:51:09;;;;;;;3.80;1.13;;;;;;;;;;4860183;29;20512;-78
2022/09/08 02:53:35;;;;;;;3.45;1.50;;;;;;;;;;4845527;29;20516;-78
2022/09/08 02:56:02;;;;;;;4.60;1.20;;;;;;;;;;4845819;29;20497;-78
2022/09/08 02:58:28;;;;;;;3.28;1.35;;;;;;;;;;4845763;29;20046;-78
2022/09/08 03:00:54;;;;;;;7.43;1.67;;;;;;;;;;4845086;29;20128;-78
2022/09/08 03:03:22;;;;;;;5.28;1.50;;;;;;;;;;4845830;29;20054;-78
2022/09/08 03:05:48;;;;;;;4.50;1.27;;;;;;;;;;4845603;29;20498;-78
2022/09/08 03:08:14;;;;;;;4.07;1.17;;;;;;;;;;4845118;29;20037;-78
2022/09/08 03:10:41;;;;;;;6.43;1.60;;;;;;;;;;4845501;29;20050;-78
2022/09/08 03:13:07;;;;;;;4.88;1.70;;;;;;;;;;4846043;29;20098;-78
2022/09/08 03:15:34;;;;;;;3.22;1.45;;;;;;;;;;4845165;29;20041;-77
2022/09/08 03:18:03;;;;;;;2.92;1.10;;;;;;;;;;4845444;29;20050;-78
2022/09/08 03:20:30;;;;;;;7.38;1.90;;;;;;;;;;4845597;29;20076;-77
2022/09/08 03:22:56;;;;;;;4.90;1.88;;;;;;;;;;4845041;29;20114;-77
2022/09/08 03:25:22;;;;;;;4.60;1.63;;;;;;;;;;4844966;29;20469;-78
2022/09/08 03:27:49;;;;;;;6.10;1.63;;;;;;;;;;4845225;29;20050;-77
2022/09/08 03:30:16;;;;;;;3.83;1.42;;;;;;;;;;4845096;29;20136;-77
2022/09/08 03:32:42;;;;;;;4.10;1.38;;;;;;;;;;4845770;29;20077;-77
2022/09/08 03:35:11;;;;;;;5.30;1.40;;;;;;;;;;4844973;29;20505;-77
2022/09/08 03:37:38;;;;;;;3.00;1.40;;;;;;;;;;4844903;29;20050;-77
2022/09/08 03:40:05;;;;;;;5.60;1.35;;;;;;;;;;4844971;29;20084;-77
2022/09/08 03:42:35;;;;;;;4.45;1.40;;;;;;;;;;4845227;29;20050;-78
2022/09/08 03:45:02;;;;;;;5.95;1.40;;;;;;;;;;4844562;29;20122;-78
2022/09/08 03:47:29;;;;;;;4.57;1.38;;;;;;;;;;4844607;29;20637;-78
2022/09/08 03:49:56;;;;;;;5.05;1.45;;;;;;;;;;4844744;29;20162;-78
2022/09/08 03:52:22;;;;;;;7.22;1.70;;;;;;;;;;4844729;29;20065;-78
2022/09/08 03:54:48;;;;;;;4.25;1.17;;;;;;;;;;4844763;29;20053;-78
2022/09/08 03:57:16;;;;;;;4.60;1.30;;;;;;;;;;4844763;29;20046;-78
2022/09/08 03:59:42;;;;;;;3.72;1.60;;;;;;;;;;4844183;29;20513;-79
2022/09/08 04:02:09;;;;;;;3.50;1.38;;;;;;;;;;4844908;29;20450;-79
2022/09/08 04:04:36;;;;;;;4.90;1.40;;;;;;;;;;4844252;29;20077;-79
2022/09/08 04:07:03;;;;;;;3.30;1.10;;;;;;;;;;4844314;29;20045;-79
2022/09/08 04:09:29;;;;;;;5.30;1.70;;;;;;;;;;4832042;29;20078;-80
2022/09/08 04:11:55;;;;;;;5.20;1.60;;;;;;;;;;4831888;29;20069;-81
2022/09/08 04:14:21;;;;;;;9.15;1.83;;;;;;;;;;4841637;29;20478;-81
2022/09/08 04:16:47;;;;;;;3.28;1.40;;;;;;;;;;4842801;29;20072;-81
2022/09/08 04:19:14;;;;;;;6.65;1.60;;;;;;;;;;4830123;29;20052;-76
2022/09/08 04:21:40;;;;;;;4.38;1.67;;;;;;;;;;4829197;29;20042;-81
2022/09/08 04:24:07;;;;;;;5.65;1.70;;;;;;;;;;4838930;29;20415;-81
2022/09/08 04:26:33;;;;;;;5.20;1.52;;;;;;;;;;4826131;29;20133;-81
2022/09/08 04:28:59;;;;;;;4.63;1.67;;;;;;;;;;4825989;29;20058;-81
2022/09/08 04:31:26;;;;;;;6.43;1.35;;;;;;;;;;4827855;29;20526;-82
2022/09/08 04:33:52;;;;;;;5.45;1.58;;;;;;;;;;4836013;29;20133;-81
2022/09/08 04:36:19;;;;;;;3.97;1.48;;;;;;;;;;4825646;29;20045;-80
2022/09/08 04:38:45;;;;;;;4.30;1.38;;;;;;;;;;4824616;29;20080;-79
2022/09/08 04:41:13;;;;;;;6.13;1.88;;;;;;;;;;4823006;29;20134;-79
2022/09/08 04:43:40;;;;;;;7.00;1.80;;;;;;;;;;4825046;29;20038;-80
2022/09/08 04:46:07;;;;;;;4.30;1.83;;;;;;;;;;4825293;29;20053;-80
2022/09/08 04:48:34;;;;;;;5.40;1.70;;;;;;;;;;4825794;29;20081;-77
2022/09/08 04:51:01;;;;;;;4.85;1.45;;;;;;;;;;4832536;29;20042;-73
2022/09/08 04:53:28;;;;;;;5.22;1.67;;;;;;;;;;4828206;29;20046;-73
2022/09/08 04:55:54;;;;;;;6.40;1.50;;;;;;;;;;4833316;29;20038;-73
2022/09/08 04:58:21;;;;;;;6.05;1.70;;;;;;;;;;4828654;29;20050;-73
2022/09/08 05:00:47;;;;;;;10.52;1.95;;;;;;;;;;4827519;29;20097;-73
2022/09/08 05:03:13;;;;;;;9.40;2.10;;;;;;;;;;4832974;29;20057;-73
2022/09/08 05:05:40;;;;;;;7.70;2.25;;;;;;;;;;4833061;29;20054;-73
2022/09/08 05:08:06;;;;;;;6.00;1.73;;;;;;;;;;4839803;29;20053;-73
2022/09/08 05:10:33;;;;;;;6.57;1.90;;;;;;;;;;4840967;29;20153;-73
2022/09/08 05:13:00;;;;;;;7.72;1.63;;;;;;;;;;4831445;29;20046;-73
2022/09/08 05:15:26;;;;;;;6.72;2.10;;;;;;;;;;4843892;29;20071;-73
2022/09/08 05:17:53;;;;;;;4.13;1.80;;;;;;;;;;4843592;29;20178;-73
2022/09/08 05:20:19;;;;;;;7.07;1.80;;;;;;;;;;4843806;29;20045;-72
2022/09/08 05:22:45;;;;;;;5.72;1.80;;;;;;;;;;4843512;29;20064;-72
2022/09/08 05:25:12;;;;;;;6.35;2.03;;;;;;;;;;4846795;29;20042;-73
2022/09/08 05:27:38;;;;;;;7.45;1.85;;;;;;;;;;4848149;29;20046;-73
2022/09/08 05:30:05;;;;;;;8.23;1.85;;;;;;;;;;4844881;29;20054;-73
2022/09/08 05:32:31;;;;;;;6.13;1.92;;;;;;;;;;4839335;29;20038;-73
2022/09/08 05:34:57;;;;;;;10.10;3.55;;;;;;;;;;4829800;29;20046;-74
2022/09/08 05:37:27;;;;;;;8.70;2.28;;;;;;;;;;4829177;29;20077;-73
2022/09/08 05:39:54;;;;;;;8.80;2.30;;;;;;;;;;4837981;29;20163;-73
2022/09/08 05:42:20;;;;;;;8.10;3.75;;;;;;;;;;4846787;29;20044;-74
2022/09/08 05:44:46;;;;;;;7.47;2.70;;;;;;;;;;4847253;29;20061;-74
2022/09/08 05:47:12;;;;;;;12.07;2.28;;;;;;;;;;4847046;29;20053;-74
2022/09/08 05:49:38;;;;;;;7.55;1.75;;;;;;;;;;4846971;29;20092;-74
2022/09/08 05:52:05;;;;;;;9.68;1.63;;;;;;;;;;4846232;29;20130;-74
2022/09/08 05:54:31;;;;;;;7.50;1.70;;;;;;;;;;4844825;29;20056;-74
2022/09/08 05:56:57;;;;;;;10.07;1.77;;;;;;;;;;4841702;29;20524;-73
2022/09/08 05:59:24;;;;;;;5.07;1.75;;;;;;;;;;4846360;29;20054;-73
2022/09/08 06:01:50;;;;;;;6.20;1.90;;;;;;;;;;4846493;29;20052;-74
2022/09/08 06:04:16;;;;;;;8.18;2.05;;;;;;;;;;4846035;29;20070;-74
2022/09/08 06:06:42;;;;;;;4.90;1.50;;;;;;;;;;4845531;29;20556;-74
2022/09/08 06:09:08;;;;;;;7.18;1.90;;;;;;;;;;4845577;29;20431;-73
2022/09/08 06:11:35;;;;;;;6.75;1.98;;;;;;;;;;4846257;29;20379;-74
2022/09/08 06:14:02;;;;;;;9.70;1.88;;;;;;;;;;4846136;29;20413;-75
2022/09/08 06:16:29;;;;;;;5.32;1.83;;;;;;;;;;4846215;29;20038;-74
2022/09/08 06:18:57;;;;;;;5.20;1.58;;;;;;;;;;4846322;29;20041;-77
2022/09/08 06:21:26;;;;;;;5.22;1.60;;;;;;;;;;4845511;29;20049;-77
2022/09/08 06:23:53;;;;;;;8.55;2.00;;;;;;;;;;4846287;29;20050;-77
2022/09/08 06:26:26;;;;;;;10.38;1.80;;;;;;;;;;4846187;29;20046;-77
2022/09/08 06:29:01;;;;;;;3.72;1.60;;;;;;;;;;4845900;29;20057;-77
2022/09/08 06:31:40;;;;;;;5.78;1.65;;;;;;;;;;4846261;29;20110;-77
2022/09/08 06:34:10;;;;;;;7.13;1.70;;;;;;;;;;4845975;29;20428;-77
2022/09/08 06:36:45;;;;;;;4.88;1.70;;;;;;;;;;4845116;29;20046;-77
2022/09/08 06:39:16;;;;;;;3.88;1.63;;;;;;;;;;4846096;29;20042;-77
2022/09/08 06:41:48;;;;;;;3.20;1.50;;;;;;;;;;4860554;29;20046;-77
2022/09/08 06:44:22;;;;;;;6.25;1.88;;;;;;;;;;4845627;29;20461;-77
2022/09/08 06:46:48;;;;;;;7.07;1.60;;;;;;;;;;4846837;29;20049;-77
2022/09/08 06:49:14;;;;;;;6.75;1.88;;;;;;;;;;4846105;29;20521;-77
2022/09/08 06:51:48;;;;;;;9.93;1.90;;;;;;;;;;4846357;29;20053;-77
2022/09/08 06:54:17;;;;;;;5.32;1.73;;;;;;;;;;4846011;29;20042;-77
2022/09/08 06:56:51;;;;;;;5.65;1.50;;;;;;;;;;4846061;29;20042;-77
2022/09/08 06:59:32;;;;;;;6.00;1.80;;;;;;;;;;4846213;29;20113;-77
2022/09/08 07:02:16;;;;;;;5.88;1.73;;;;;;;;;;4846114;29;20078;-77
2022/09/08 07:04:51;;;;;;;6.88;1.60;;;;;;;;;;4845973;29;20042;-77
2022/09/08 07:07:31;;;;;;;5.38;1.65;;;;;;;;;;4845775;29;20128;-77
2022/09/08 07:10:04;;;;;;;5.72;1.50;;;;;;;;;;4846152;29;20206;-77
2022/09/08 07:12:37;;;;;;;7.85;1.60;;;;;;;;;;4846345;29;20056;-78
2022/09/08 07:15:17;;;;;;;5.63;2.00;;;;;;;;;;4846006;29;20053;-77
2022/09/08 07:17:49;;;;;;;8.88;2.38;;;;;;;;;;4846327;29;20054;-77
2022/09/08 07:20:15;;;;;;;8.57;1.70;;;;;;;;;;4845782;29;20133;-77
2022/09/08 07:22:47;;;;;;;7.32;1.90;;;;;;;;;;4845496;29;20541;-77
2022/09/08 07:25:33;;;;;;;3.85;1.70;;;;;;;;;;4845660;29;20046;-77
2022/09/08 07:28:02;;;;;;;6.03;1.90;;;;;;;;;;4845517;29;20044;-77
2022/09/08 07:30:28;;;;;;;5.88;1.60;;;;;;;;;;4845427;29;20076;-77
2022/09/08 07:33:02;;;;;;;6.47;1.90;;;;;;;;;;4845399;29;20057;-77
2022/09/08 07:35:41;;;;;;;7.30;1.50;;;;;;;;;;4845576;29;20038;-77
2022/09/08 07:38:17;;;;;;;7.68;1.77;;;;;;;;;;4845367;29;20558;-77
2022/09/08 07:40:49;;;;;;;5.10;1.60;;;;;;;;;;4844834;29;20528;-77
2022/09/08 07:43:15;;;;;;;6.50;1.48;;;;;;;;;;4845732;29;20046;-77
2022/09/08 07:45:41;;;;;;;3.92;1.40;;;;;;;;;;4845247;29;20504;-77
2022/09/08 07:48:16;;;;;;;5.22;1.65;;;;;;;;;;4845036;29;20156;-77
2022/09/08 07:50:54;;;;;;;9.00;1.77;;;;;;;;;;4845119;29;20062;-77
2022/09/08 07:53:38;;;;;;;4.35;1.35;;;;;;;;;;4844777;29;20042;-77
2022/09/08 07:56:13;;;;;;;5.10;1.67;;;;;;;;;;4845293;29;20079;-77
2022/09/08 07:58:46;;;;;;;5.18;1.63;;;;;;;;;;4845477;29;20057;-77
2022/09/08 08:01:16;;;;;;;8.07;2.10;;;;;;;;;;4844899;29;20143;-77
2022/09/08 08:03:43;;;;;;;7.45;1.83;;;;;;;;;;4844589;29;20045;-77
2022/09/08 08:06:15;;;;;;;3.30;1.60;;;;;;;;;;4844743;29;20052;-77
2022/09/08 08:09:05;;;;;;;4.95;1.65;;;;;;;;;;4844168;29;20081;-77
2022/09/08 08:11:37;;;;;;;4.68;1.85;;;;;;;;;;4844815;29;20057;-77
2022/09/08 08:14:03;;;;;;;5.03;1.55;;;;;;;;;;4844144;29;20129;-77
2022/09/08 08:16:44;;;;;;;4.65;1.70;;;;;;;;;;4844100;29;20406;-77
2022/09/08 08:19:19;;;;;;;5.28;1.70;;;;;;;;;;4844066;29;20125;-78
2022/09/08 08:21:48;;;;;;;5.22;1.70;;;;;;;;;;4844232;29;20056;-77
2022/09/08 08:24:26;;;;;;;4.70;1.50;;;;;;;;;;4843946;29;20087;-77
2022/09/08 08:27:06;;;;;;;5.75;1.70;;;;;;;;;;4844256;29;20045;-78
2022/09/08 08:29:44;;;;;;;4.18;1.23;;;;;;;;;;4844228;29;20073;-78
2022/09/08 08:32:13;;;;;;;6.32;1.33;;;;;;;;;;4844789;29;20114;-77
2022/09/08 08:34:49;;;;;;;6.70;1.75;;;;;;;;;;4843968;29;20046;-77
2022/09/08 08:37:19;;;;;;;3.90;1.30;;;;;;;;;;4843870;29;20050;-78
2022/09/08 08:39:47;;;;;;;3.47;1.13;;;;;;;;;;4843735;29;20141;-77
2022/09/08 08:42:33;;;;;;;5.70;1.42;;;;;;;;;;4844354;29;20058;-77
2022/09/08 08:45:07;;;;;;;4.45;1.45;;;;;;;;;;4844315;29;20057;-77
2022/09/08 08:47:44;;;;;;;7.15;1.33;;;;;;;;;;4843403;29;20082;-77
2022/09/08 08:50:22;;;;;;;5.97;1.70;;;;;;;;;;4844021;29;20046;-78
2022/09/08 08:53:07;;;;;;;4.88;1.50;;;;;;;;;;4843767;29;20140;-77
2022/09/08 08:55:42;;;;;;;3.65;1.20;;;;;;;;;;4843919;29;20045;-77
2022/09/08 08:58:20;;;;;;;5.90;1.35;;;;;;;;;;4843465;29;20129;-77
2022/09/08 09:00:46;;;;;;;4.13;1.40;;;;;;;;;;4843495;29;20042;-78
2022/09/08 09:03:41;;;;;;;6.35;1.55;;;;;;;;;;4844161;29;20201;-77
2022/09/08 09:06:19;;;;;;;4.47;1.33;;;;;;;;;;4844365;29;20076;-78
2022/09/08 09:08:45;;;;;;;3.97;1.38;;;;;;;;;;4843716;29;20101;-77
2022/09/08 09:11:15;;;;;;;5.13;1.42;;;;;;;;;;4843866;29;20128;-77
2022/09/08 09:13:50;;;;;;;2.78;1.20;;;;;;;;;;4843709;29;20195;-77
2022/09/08 09:16:34;;;;;;;4.00;1.30;;;;;;;;;;4844233;29;20504;-78
2022/09/08 09:19:11;;;;;;;7.43;1.60;;;;;;;;;;4843672;29;20061;-78
2022/09/08 09:21:50;;;;;;;4.72;1.45;;;;;;;;;;4843513;29;20053;-78
2022/09/08 09:24:22;;;;;;;4.57;1.30;;;;;;;;;;4843565;29;20042;-78
2022/09/08 09:26:51;;;;;;;4.95;1.45;;;;;;;;;;4843979;29;20042;-77
2022/09/08 09:29:26;;;;;;;4.70;1.20;;;;;;;;;;4843159;29;20528;-77
2022/09/08 09:32:00;;;;;;;7.47;1.75;;;;;;;;;;4857979;29;20387;-77
2022/09/08 09:34:41;;;;;;;6.45;1.38;;;;;;;;;;4843278;29;20046;-77
2022/09/08 09:37:11;;;;;;;7.05;1.90;;;;;;;;;;4843097;29;20456;-77
2022/09/08 09:39:45;;;;;;;2.58;1.20;;;;;;;;;;4843374;29;20050;-78
2022/09/08 09:42:22;;;;;;;6.15;1.88;;;;;;;;;;4843414;29;20054;-77
2022/09/08 09:44:51;;;;;;;5.00;1.40;;;;;;;;;;4842789;29;20518;-78
2022/09/08 09:47:36;;;;;;;4.30;1.40;;;;;;;;;;4843426;29;20052;-77
2022/09/08 09:50:12;;;;;;;6.80;1.63;;;;;;;;;;4843275;29;20056;-78
2022/09/08 09:52:44;;;;;;;3.20;1.35;;;;;;;;;;4843416;29;20053;-78
2022/09/08 09:55:13;;;;;;;3.45;1.05;;;;;;;;;;4843201;29;20045;-78
2022/09/08 09:57:53;;;;;;;4.40;1.52;;;;;;;;;;4843340;29;20077;-78
2022/09/08 10:00:20;;;;;;;8.13;1.85;;;;;;;;;;4843495;29;20045;-77
2022/09/08 10:03:05;;;;;;;10.43;1.65;;;;;;;;;;4843321;29;20501;-78
2022/09/08 10:05:34;;;;;;;5.22;1.13;;;;;;;;;;4843021;29;20094;-78
2022/09/08 10:08:00;;;;;;;5.18;1.17;;;;;;;;;;4843373;29;20050;-77
2022/09/08 10:10:29;;;;;;;5.13;1.40;;;;;;;;;;4844801;29;20141;-77
2022/09/08 10:13:02;;;;;;;2.97;1.08;;;;;;;;;;4846041;29;20414;-78
2022/09/08 10:15:29;;;;;;;5.60;1.50;;;;;;;;;;4846524;29;20052;-78
2022/09/08 10:18:11;;;;;;;7.60;2.97;;;;;;;;;;4846435;29;20045;-78
2022/09/08 10:21:13;;;;;;;5.82;1.35;;;;;;;;;;4846337;29;20141;-78
2022/09/08 10:23:54;;;;;;;5.18;1.95;;;;;;;;;;4825617;29;20081;-77
2022/09/08 10:26:29;;;;;;;3.55;1.45;;;;;;;;;;4843908;29;20046;-78
2022/09/08 10:29:15;;;;;;;8.95;2.17;;;;;;;;;;4846102;29;20128;-78
2022/09/08 10:31:47;;;;;;;3.42;1.27;;;;;;;;;;4846400;29;20061;-77
2022/09/08 10:34:32;;;;;;;4.00;1.20;;;;;;;;;;4846537;29;20054;-77
2022/09/08 10:37:16;;;;;;;4.60;1.17;;;;;;;;;;4845901;29;20041;-78
2022/09/08 10:39:47;;;;;;;4.00;1.10;;;;;;;;;;4845802;29;20432;-78
2022/09/08 10:42:16;;;;;;;4.80;1.33;;;;;;;;;;4846652;29;20065;-77
2022/09/08 10:44:50;;;;;;;4.05;1.25;;;;;;;;;;4845935;29;20164;-78
2022/09/08 10:47:34;;;;;;;5.07;1.10;;;;;;;;;;4846366;29;20106;-78
2022/09/08 10:50:20;;;;;;;5.63;1.42;;;;;;;;;;4846063;29;20054;-78
2022/09/08 10:52:50;;;;;;;2.80;0.90;;;;;;;;;;4845926;29;20501;-78
2022/09/08 10:55:36;;;;;;;2.75;1.35;;;;;;;;;;4846173;29;20056;-78
2022/09/08 10:58:11;;;;;;;3.58;1.00;;;;;;;;;;4846047;29;20045;-78
2022/09/08 11:00:47;;;;;;;2.42;1.00;;;;;;;;;;4846088;29;20498;-78
2022/09/08 11:03:26;;;;;;;1.90;0.80;;;;;;;;;;4845842;29;20081;-78
2022/09/08 11:06:08;;;;;;;3.70;1.08;;;;;;;;;;4846000;29;20081;-78
2022/09/08 11:09:00;;;;;;;4.72;1.00;;;;;;;;;;4845547;29;20134;-78
2022/09/08 11:11:26;;;;;;;4.85;1.00;;;;;;;;;;4837460;29;20084;-78
2022/09/08 11:14:00;;;;;;;4.30;1.20;;;;;;;;;;4845916;29;20050;-78
2022/09/08 11:16:32;;;;;;;2.40;1.08;;;;;;;;;;4845478;29;20398;-78
2022/09/08 11:19:04;;;;;;;3.15;1.00;;;;;;;;;;4845441;29;20490;-78
2022/09/08 11:21:32;;;;;;;2.03;1.00;;;;;;;;;;4845118;29;20047;-77
2022/09/08 11:24:08;;;;;;;4.90;1.25;;;;;;;;;;4845617;29;20105;-78
2022/09/08 11:26:39;;;;;;;4.57;1.05;;;;;;;;;;4845274;29;20117;-78
2022/09/08 11:29:05;;;;;;;4.07;1.10;;;;;;;;;;4845162;29;20513;-78
2022/09/08 11:31:50;;;;;;;3.75;1.15;;;;;;;;;;4845219;29;20046;-78
2022/09/08 11:34:22;;;;;;;3.40;1.00;;;;;;;;;;4845437;29;20069;-77
2022/09/08 11:37:07;;;;;;;3.63;1.10;;;;;;;;;;4845546;29;20056;-78
2022/09/08 11:39:51;;;;;;;5.10;1.00;;;;;;;;;;4845093;29;20137;-78
2022/09/08 11:42:23;;;;;;;2.28;0.93;;;;;;;;;;4845460;29;20041;-78
2022/09/08 11:45:01;;;;;;;4.97;1.45;;;;;;;;;;4859168;29;20425;-78
2022/09/08 11:47:27;;;;;;;1.95;0.95;;;;;;;;;;4844955;29;20053;-78
2022/09/08 11:50:13;;;;;;;2.70;0.90;;;;;;;;;;4844729;29;20153;-77
2022/09/08 11:52:45;;;;;;;2.35;0.90;;;;;;;;;;4844701;29;20083;-77
2022/09/08 11:55:11;;;;;;;2.17;1.00;;;;;;;;;;4844904;29;20049;-77
2022/09/08 11:57:40;;;;;;;4.40;0.77;;;;;;;;;;4844474;29;20138;-78
2022/09/08 12:00:30;;;;;;;2.08;0.90;;;;;;;;;;4844658;29;20056;-77
2022/09/08 12:03:02;;;;;;;6.25;0.95;;;;;;;;;;4844325;29;20083;-77
2022/09/08 12:05:47;;;;;;;4.22;1.30;;;;;;;;;;4844698;29;20129;-78
2022/09/08 12:08:31;;;;;;;2.53;0.80;;;;;;;;;;4844528;29;20088;-78
2022/09/08 12:11:07;;;;;;;3.30;0.98;;;;;;;;;;4844538;29;20050;-78
2022/09/08 12:13:45;;;;;;;2.95;0.80;;;;;;;;;;4844534;29;20053;-78
2022/09/08 12:16:29;;;;;;;1.95;0.80;;;;;;;;;;4844510;29;20050;-78
2022/09/08 12:18:58;;;;;;;17.88;1.45;;;;;;;;;;4844221;29;20069;-77
2022/09/08 12:21:24;;;;;;;2.97;0.80;;;;;;;;;;4844252;29;20050;-78
2022/09/08 12:24:09;;;;;;;7.03;1.05;;;;;;;;;;4844607;29;20048;-77
2022/09/08 12:26:41;;;;;;;3.72;1.02;;;;;;;;;;4844299;29;20520;-77
2022/09/08 12:29:19;;;;;;;3.30;1.00;;;;;;;;;;4844359;29;20088;-77
2022/09/08 12:32:05;;;;;;;3.50;1.00;;;;;;;;;;4844490;29;20053;-78
2022/09/08 12:34:31;;;;;;;6.50;0.80;;;;;;;;;;4843149;29;20049;-78
2022/09/08 12:37:16;;;;;;;3.90;0.82;;;;;;;;;;4843747;29;20080;-77
2022/09/08 12:39:42;;;;;;;4.13;0.80;;;;;;;;;;4844392;29;20087;-78
2022/09/08 12:42:14;;;;;;;2.67;0.85;;;;;;;;;;4843858;29;20075;-78
2022/09/08 12:44:56;;;;;;;1.92;0.90;;;;;;;;;;4843879;29;20053;-77
2022/09/08 12:47:33;;;;;;;2.85;0.93;;;;;;;;;;4844300;29;20050;-78
2022/09/08 12:50:16;;;;;;;3.38;0.80;;;;;;;;;;4844058;29;20053;-78
2022/09/08 12:52:56;;;;;;;2.92;0.75;;;;;;;;;;4844187;29;20162;-78
2022/09/08 12:55:51;;;;;;;3.53;1.20;;;;;;;;;;4844308;29;20120;-78
2022/09/08 12:58:24;;;;;;;1.70;0.75;;;;;;;;;;4839991;29;20504;-77
2022/09/08 13:00:55;;;;;;;1.92;0.68;;;;;;;;;;4844119;29;20070;-78
2022/09/08 13:03:21;;;;;;;1.63;0.82;;;;;;;;;;4844473;29;20493;-77
2022/09/08 13:06:05;;;;;;;3.25;1.17;;;;;;;;;;4844011;29;20230;-78
2022/09/08 13:08:35;;;;;;;6.47;0.77;;;;;;;;;;4843454;29;20038;-78
2022/09/08 13:11:08;;;;;;;2.30;0.95;;;;;;;;;;4844267;29;20054;-78
2022/09/08 13:13:36;;;;;;;3.72;1.00;;;;;;;;;;4843322;29;20069;-78
2022/09/08 13:16:08;;;;;;;1.70;0.70;;;;;;;;;;4844219;29;20431;-78
2022/09/08 13:18:53;;;;;;;2.63;0.88;;;;;;;;;;4843927;29;20046;-78
2022/09/08 13:21:50;;;;;;;6.05;0.90;;;;;;;;;;4844382;29;20046;-78
2022/09/08 13:24:34;;;;;;;2.38;0.90;;;;;;;;;;4844152;29;20130;-78
2022/09/08 13:27:13;;;;;;;2.95;0.80;;;;;;;;;;4843674;29;20046;-78
2022/09/08 13:29:45;;;;;;;2.33;1.02;;;;;;;;;;4843631;29;20046;-78
2022/09/08 13:32:18;;;;;;;2.53;0.98;;;;;;;;;;4843649;29;20084;-78
2022/09/08 13:35:03;;;;;;;1.40;0.70;;;;;;;;;;4843769;29;20041;-78
2022/09/08 13:37:47;;;;;;;3.22;0.70;;;;;;;;;;4843397;29;20045;-77
2022/09/08 13:40:14;;;;;;;4.07;0.60;;;;;;;;;;4843939;29;20486;-78
2022/09/08 13:43:04;;;;;;;3.03;0.70;;;;;;;;;;4843854;29;20053;-78
2022/09/08 13:45:42;;;;;;;3.92;0.93;;;;;;;;;;4844979;29;20418;-77
2022/09/08 13:48:28;;;;;;;2.85;0.90;;;;;;;;;;4847104;29;20065;-78
2022/09/08 13:51:06;;;;;;;1.98;0.93;;;;;;;;;;4836070;29;20061;-78
2022/09/08 13:53:32;;;;;;;3.13;0.80;;;;;;;;;;4846486;29;20046;-78
2022/09/08 13:56:28;;;;;;;2.60;0.88;;;;;;;;;;4846813;29;20050;-78
2022/09/08 13:58:58;;;;;;;3.53;0.65;;;;;;;;;;4841902;29;20125;-78
2022/09/08 14:01:34;;;;;;;1.38;0.82;;;;;;;;;;4846529;29;20046;-77
2022/09/08 14:04:03;;;;;;;2.70;0.77;;;;;;;;;;4847151;29;20038;-78
2022/09/08 14:06:31;;;;;;;5.05;0.98;;;;;;;;;;4847228;29;20061;-77
2022/09/08 14:09:07;;;;;;;6.75;1.08;;;;;;;;;;4846323;29;20125;-77
2022/09/08 14:11:56;;;;;;;4.32;1.08;;;;;;;;;;4846858;29;20555;-78
2022/09/08 14:14:25;;;;;;;2.85;0.73;;;;;;;;;;4846686;29;20042;-78
2022/09/08 14:16:53;;;;;;;2.60;0.90;;;;;;;;;;4846459;29;20038;-77
2022/09/08 14:19:40;;;;;;;3.72;0.80;;;;;;;;;;4846207;29;20573;-77
2022/09/08 14:22:20;;;;;;;2.28;0.73;;;;;;;;;;4846037;29;20046;-77
2022/09/08 14:24:58;;;;;;;1.73;0.70;;;;;;;;;;4846410;29;20041;-78
2022/09/08 14:27:37;;;;;;;2.58;0.60;;;;;;;;;;4846076;29;20046;-78
2022/09/08 14:30:23;;;;;;;3.10;0.70;;;;;;;;;;4846285;29;20165;-78
2022/09/08 14:33:11;;;;;;;3.40;0.60;;;;;;;;;;4846855;29;20101;-78
2022/09/08 14:35:37;;;;;;;4.70;1.20;;;;;;;;;;4846312;29;20498;-78
2022/09/08 14:38:09;;;;;;;2.03;0.60;;;;;;;;;;4845605;29;20054;-77
2022/09/08 14:40:55;;;;;;;2.40;0.70;;;;;;;;;;4846067;29;20109;-78
2022/09/08 14:43:42;;;;;;;1.60;0.52;;;;;;;;;;4835641;29;20129;-78
2022/09/08 14:46:08;;;;;;;4.68;0.73;;;;;;;;;;4835435;29;20050;-78
2022/09/08 14:48:52;;;;;;;1.80;0.60;;;;;;;;;;4846180;29;20064;-78
2022/09/08 14:51:42;;;;;;;3.60;0.70;;;;;;;;;;4846251;29;20053;-78
2022/09/08 14:54:12;;;;;;;1.60;0.70;;;;;;;;;;4842794;29;20046;-77
2022/09/08 14:56:41;;;;;;;1.20;0.57;;;;;;;;;;4844930;29;20406;-77
2022/09/08 14:59:26;;;;;;;2.17;0.47;;;;;;;;;;4845825;29;20186;-78
2022/09/08 15:02:00;;;;;;;3.45;0.55;;;;;;;;;;4846383;29;20050;-78
2022/09/08 15:04:29;;;;;;;4.43;0.60;;;;;;;;;;4845426;29;20085;-77
2022/09/08 15:07:00;;;;;;;1.90;0.88;;;;;;;;;;4831072;29;20129;-78
2022/09/08 15:09:26;;;;;;;;;;;;;;;;;;4832627;29;20137;-76
2022/09/08 15:11:54;;;;;;;1.70;0.73;;;;;;;;;;4769149;29;19998;-76
2022/09/08 15:14:22;;;;;;;3.42;0.70;;;;;;;;;;4771912;30;20065;-76
2022/09/08 15:16:48;;;;;;;3.30;0.70;;;;;;;;;;4776862;30;20039;-76